createdAt,value
2018-10-09T00:00:37.771Z,7.40
2018-10-09T00:05:42.278Z,8.43
2018-10-09T00:10:47.042Z,8.03
2018-10-09T00:15:51.646Z,8.43
2018-10-09T00:20:55.158Z,11.30
2018-10-09T00:25:58.809Z,6.10
2018-10-09T00:31:02.362Z,6.93
2018-10-09T00:36:06.198Z,6.93
2018-10-09T00:41:09.785Z,5.63
2018-10-09T00:46:13.404Z,8.53
2018-10-09T00:51:16.942Z,6.00
2018-10-09T00:56:20.578Z,6.10
2018-10-09T01:01:24.174Z,5.73
2018-10-09T01:06:31.659Z,6.27
2018-10-09T01:11:35.381Z,5.93
2018-10-09T01:16:38.918Z,9.20
2018-10-09T01:21:42.505Z,5.97
2018-10-09T01:26:49.874Z,6.40
2018-10-09T01:31:53.674Z,6.20
2018-10-09T01:36:57.258Z,5.67
2018-10-09T01:42:00.905Z,6.43
2018-10-09T01:47:06.791Z,5.33
2018-10-09T01:52:10.438Z,6.77
2018-10-09T01:57:14.078Z,6.53
2018-10-09T02:02:17.631Z,5.63
2018-10-09T02:07:21.350Z,6.73
2018-10-09T02:12:30.191Z,6.83
2018-10-09T02:17:33.862Z,7.87
2018-10-09T02:22:37.478Z,9.47
2018-10-09T02:27:41.091Z,7.63
2018-10-09T02:32:45.635Z,9.13
2018-10-09T02:37:49.193Z,5.93
2018-10-09T02:42:52.954Z,8.63
2018-10-09T02:47:56.574Z,5.93
2018-10-09T02:53:00.297Z,5.27
2018-10-09T02:58:03.903Z,6.10
2018-10-09T03:03:07.534Z,5.17
2018-10-09T03:08:11.038Z,8.33
2018-10-09T03:13:14.612Z,5.90
2018-10-09T03:18:18.157Z,5.90
2018-10-09T03:23:21.938Z,5.30
2018-10-09T03:28:25.482Z,7.60
2018-10-09T03:33:29.005Z,5.37
2018-10-09T03:38:32.537Z,5.20
2018-10-09T03:43:36.322Z,5.60
2018-10-09T03:48:39.871Z,7.73
2018-10-09T03:53:43.366Z,5.00
2018-10-09T03:58:48.029Z,7.40
2018-10-09T04:03:51.518Z,5.10
2018-10-09T04:08:56.185Z,6.50
2018-10-09T04:13:59.918Z,7.10
2018-10-09T04:19:03.457Z,8.60
2018-10-09T04:24:07.074Z,20.30
2018-10-09T04:29:10.737Z,9.73
2018-10-09T04:34:15.241Z,11.93
2018-10-09T04:39:19.306Z,19.97
2018-10-09T04:44:22.850Z,11.23
2018-10-09T04:49:26.462Z,8.27
2018-10-09T04:54:30.102Z,6.83
2018-10-09T04:59:34.038Z,8.23
2018-10-09T05:04:37.582Z,8.30
2018-10-09T05:09:42.245Z,10.00
2018-10-09T05:14:46.034Z,9.83
2018-10-09T05:19:49.614Z,9.83
2018-10-09T05:24:53.205Z,9.27
2018-10-09T05:29:56.821Z,14.73
2018-10-09T05:35:00.719Z,33.60
2018-10-09T05:40:04.381Z,25.10
2018-10-09T05:45:08.395Z,86.37
2018-10-09T05:50:12.070Z,40.47
2018-10-09T05:55:15.751Z,37.30
2018-10-09T06:00:19.360Z,30.37
2018-10-09T06:05:22.971Z,22.77
2018-10-09T06:10:26.566Z,23.30
2018-10-09T06:15:30.343Z,18.87
2018-10-09T06:20:33.899Z,20.23
2018-10-09T06:25:37.474Z,16.40
2018-10-09T06:30:41.229Z,18.53
2018-10-09T06:35:45.904Z,19.30
2018-10-09T06:40:51.626Z,10.87
2018-10-09T06:45:55.317Z,14.67
2018-10-09T06:50:59.986Z,15.40
2018-10-09T06:56:03.554Z,15.00
2018-10-09T07:01:08.521Z,13.40
2018-10-09T07:06:12.095Z,12.87
2018-10-09T07:11:15.909Z,14.73
2018-10-09T07:16:19.435Z,10.43
2018-10-09T07:21:23.012Z,11.33
2018-10-09T07:26:26.603Z,15.20
2018-10-09T07:31:30.306Z,14.50
2018-10-09T07:36:36.023Z,10.87
2018-10-09T07:41:39.619Z,14.43
2018-10-09T07:46:44.285Z,19.67
2018-10-09T07:51:47.830Z,16.53
2018-10-09T07:56:52.542Z,15.73
2018-10-09T08:01:57.394Z,11.10
2018-10-09T08:07:01.307Z,11.30
2018-10-09T08:12:04.881Z,11.83
2018-10-09T08:17:09.606Z,7.87
2018-10-09T08:22:13.251Z,11.93
2018-10-09T08:27:16.829Z,9.63
2018-10-09T08:32:20.529Z,8.20
2018-10-09T08:37:24.098Z,9.37
2018-10-09T08:42:27.849Z,7.87
2018-10-09T08:47:31.458Z,40.93
2018-10-09T08:52:35.171Z,14.53
2018-10-09T08:57:39.850Z,10.87
2018-10-09T09:02:43.500Z,7.50
2018-10-09T09:07:47.050Z,10.17
2018-10-09T09:12:50.648Z,9.47
2018-10-09T09:17:54.394Z,10.30
2018-10-09T09:22:58.027Z,11.43
2018-10-09T09:28:01.786Z,8.17
2018-10-09T09:33:05.451Z,11.90
2018-10-09T09:38:10.145Z,9.97
2018-10-09T09:43:13.964Z,9.27
2018-10-09T09:48:17.600Z,10.57
2018-10-09T09:53:21.251Z,9.83
2018-10-09T09:58:24.939Z,15.63
2018-10-09T10:03:28.450Z,13.47
2018-10-09T10:08:32.057Z,13.60
2018-10-09T10:13:35.632Z,20.73
2018-10-09T10:18:39.515Z,12.97
2018-10-09T10:23:43.211Z,14.80
2018-10-09T10:28:46.795Z,16.77
2018-10-09T10:33:50.334Z,17.40
2018-10-09T10:38:54.162Z,17.43
2018-10-09T10:43:57.731Z,17.87
2018-10-09T10:49:04.511Z,19.43
2018-10-09T10:54:08.002Z,17.60
2018-10-09T10:59:22.171Z,16.67
2018-10-09T11:04:26.878Z,25.57
2018-10-09T11:09:33.840Z,23.17
2018-10-09T11:14:37.428Z,24.03
2018-10-09T11:19:41.043Z,26.57
2018-10-09T11:24:44.747Z,33.17
2018-10-09T11:29:50.203Z,27.67
2018-10-09T11:34:53.829Z,30.10
2018-10-09T11:39:57.865Z,29.43
2018-10-09T11:45:05.133Z,31.67
2018-10-09T11:50:09.097Z,29.87
2018-10-09T11:55:12.794Z,32.40
2018-10-09T12:00:16.769Z,29.33
2018-10-09T12:05:26.918Z,34.27
2018-10-09T12:10:30.582Z,31.97
2018-10-09T12:15:36.033Z,26.13
2018-10-09T12:20:41.734Z,27.87
2018-10-09T12:25:45.438Z,29.20
2018-10-09T12:30:53.529Z,27.33
2018-10-09T12:35:58.230Z,26.87
2018-10-09T12:41:02.866Z,22.87
2018-10-09T12:46:06.522Z,24.07
2018-10-09T12:51:11.138Z,27.47
2018-10-09T12:56:14.759Z,25.70
2018-10-09T13:01:18.322Z,20.30
2018-10-09T13:06:21.943Z,26.70
2018-10-09T13:11:25.601Z,25.30
2018-10-09T13:16:29.225Z,24.30
2018-10-09T13:21:34.201Z,25.40
2018-10-09T13:26:38.938Z,23.30
2018-10-09T13:31:42.507Z,23.13
2018-10-09T13:36:46.054Z,23.93
2018-10-09T13:41:49.669Z,21.47
2018-10-09T13:46:55.551Z,28.30
2018-10-09T13:52:00.156Z,22.07
2018-10-09T13:57:03.700Z,21.97
2018-10-09T14:02:07.637Z,20.70
2018-10-09T14:07:11.332Z,22.07
2018-10-09T14:12:14.991Z,20.10
2018-10-09T14:17:19.583Z,20.73
2018-10-09T14:22:23.245Z,21.00
2018-10-09T14:27:26.843Z,17.33
2018-10-09T14:32:30.534Z,18.40
2018-10-09T14:37:35.899Z,20.17
2018-10-09T14:42:39.650Z,23.40
2018-10-09T14:47:45.299Z,18.20
2018-10-09T14:52:50.006Z,18.97
2018-10-09T14:57:57.582Z,17.33
2018-10-09T15:03:01.350Z,16.50
2018-10-09T15:08:05.012Z,17.40
2018-10-09T15:13:08.622Z,17.17
2018-10-09T15:18:13.251Z,19.67
2018-10-09T15:23:18.954Z,19.50
2018-10-09T15:28:22.577Z,18.43
2018-10-09T15:33:27.123Z,19.13
2018-10-09T15:38:36.731Z,19.63
2018-10-09T15:43:42.410Z,24.70
2018-10-09T15:48:46.002Z,19.83
2018-10-09T15:53:51.417Z,28.97
2018-10-09T15:58:56.006Z,26.90
2018-10-09T16:03:59.612Z,26.70
2018-10-09T16:09:04.007Z,23.57
2018-10-09T16:14:07.624Z,26.00
2018-10-09T16:19:11.275Z,35.73
2018-10-09T16:24:14.953Z,28.47
2018-10-09T16:29:18.484Z,29.70
2018-10-09T16:34:22.131Z,23.77
2018-10-09T16:39:25.834Z,24.23
2018-10-09T16:44:32.626Z,22.63
2018-10-09T16:49:38.958Z,22.63
2018-10-09T16:54:43.526Z,22.33
2018-10-09T16:59:47.675Z,22.40
2018-10-09T17:04:51.345Z,24.87
2018-10-09T17:09:54.886Z,24.33
2018-10-09T17:15:00.418Z,25.57
2018-10-09T17:20:04.176Z,23.27
2018-10-09T17:25:07.971Z,27.07
2018-10-09T17:30:12.699Z,22.90
2018-10-09T17:35:20.917Z,25.63
2018-10-09T17:40:25.725Z,24.63
2018-10-09T17:45:29.443Z,24.63
2018-10-09T17:50:33.055Z,26.87
2018-10-09T17:55:40.351Z,21.50
2018-10-09T18:00:44.991Z,25.60
2018-10-09T18:05:48.698Z,27.37
2018-10-09T18:10:56.282Z,23.97
2018-10-09T18:15:59.859Z,23.97
2018-10-09T18:21:03.845Z,28.97
2018-10-09T18:26:07.570Z,26.00
2018-10-09T18:31:12.214Z,25.20
2018-10-09T18:36:16.074Z,21.90
2018-10-09T18:41:20.824Z,22.60
2018-10-09T18:46:26.608Z,24.37
2018-10-09T18:51:31.481Z,25.47
2018-10-09T18:56:35.067Z,22.17
2018-10-09T19:01:38.772Z,25.63
2018-10-09T19:06:43.364Z,28.23
2018-10-09T19:11:47.066Z,23.03
2018-10-09T19:16:50.752Z,20.97
2018-10-09T19:21:54.509Z,24.27
2018-10-09T19:26:58.494Z,24.20
2018-10-09T19:32:02.722Z,20.90
2018-10-09T19:37:06.526Z,24.23
2018-10-09T19:42:11.196Z,22.70
2018-10-09T19:47:14.791Z,23.23
2018-10-09T19:52:18.462Z,21.17
2018-10-09T19:57:22.042Z,23.07
2018-10-09T20:02:25.763Z,21.73
2018-10-09T20:07:29.282Z,21.87
2018-10-09T20:12:32.834Z,20.00
2018-10-09T20:17:37.554Z,20.93
2018-10-09T20:22:41.226Z,20.03
2018-10-09T20:27:45.089Z,18.97
2018-10-09T20:32:52.150Z,20.17
2018-10-09T20:37:57.911Z,20.30
2018-10-09T20:43:01.502Z,16.63
2018-10-09T20:48:05.159Z,18.90
2018-10-09T20:53:10.790Z,21.30
2018-10-09T20:58:14.346Z,20.97
2018-10-09T21:03:17.978Z,18.57
2018-10-09T21:08:22.146Z,20.10
2018-10-09T21:13:26.918Z,21.33
2018-10-09T21:18:30.483Z,20.27
2018-10-09T21:23:34.790Z,21.10
2018-10-09T21:28:42.278Z,24.43
2018-10-09T21:33:54.687Z,21.33
2018-10-09T21:38:58.523Z,23.30
2018-10-09T21:44:02.222Z,22.47
2018-10-09T21:49:07.657Z,20.87
2018-10-09T21:54:13.921Z,15.77
2018-10-09T21:59:17.653Z,14.60
2018-10-09T22:04:24.703Z,12.10
2018-10-09T22:09:34.111Z,10.67
2018-10-09T22:14:37.841Z,11.13
2018-10-09T22:19:42.613Z,12.97
2018-10-09T22:24:46.366Z,19.23
2018-10-09T22:29:50.041Z,22.50
2018-10-09T22:34:53.620Z,23.77
2018-10-09T22:39:57.477Z,23.83
2018-10-09T22:45:01.046Z,20.73
2018-10-09T22:50:08.454Z,26.27
2018-10-09T22:55:12.681Z,25.53
2018-10-09T23:00:18.535Z,31.03
2018-10-09T23:05:22.179Z,31.53
2018-10-09T23:10:26.219Z,45.30
2018-10-09T23:20:39.175Z,30.77
2018-10-09T23:25:42.796Z,34.93
2018-10-09T23:30:46.595Z,30.90
2018-10-09T23:35:50.176Z,35.60
2018-10-09T23:40:55.274Z,56.50
2018-10-09T23:46:04.582Z,25.40
2018-10-09T23:51:08.255Z,21.07
2018-10-09T23:56:13.019Z,22.87
